Terminal Aerodrome Forecast
Issued by NWS

Home | Current Version | Previous Version | Text Only | Print | Product List | Glossary On
Versions: 1 2 3 4 5 6 7 8 9 10 11 12
000
FTAK31 PAJN 210529
TAFAPG
TAF
PAPG 210529Z 2106/2206 13012G22KT P6SM -RA SCT030 BKN050 OVC070
      WS020/15040KT
     FM211100 14006KT 5SM -RA BR BKN030 OVC040 WS020/14035KT
     FM211500 12008KT 4SM -RA BR SCT015 OVC025 WS020/15035KT
     FM220100 11008KT 6SM -RA BR SCT025 BKN030 OVC050 WS020/14040KT
      AMD LTD TO CLD VIS AND WIND 2106/2115=

USA.gov is the U.S. government's official web portal to all federal, state and local government web resources and services.